Impacts METAR Board
IDs:

KPSN - Palestine Muni, TX, US

Updated at: 0500 UTC 19 Aug 2019
Potential Impact None Slight Moderate High
Time 18/17Z 18/18Z 18/19Z 18/20Z 18/21Z 18/22Z 18/23Z 19/00Z 19/01Z 19/02Z 19/03Z 19/04Z 19/05Z
Temp89 92 95 95 96 97 96 95 91 83 87 86 84
Dewpt74 73 73 71 71 70 69 69 72 76 75 76 77
Altim29.96 29.94 29.92 29.90 29.90 29.89 29.88 29.87 29.86 29.88 29.91 29.94 29.95
VIS10 10 10 10 10 10 10 10 10 10 10 10 10
CIG-- -- -- -- -- -- -- -- -- -- -- -- --
CoverSCTSCTCLRSCTSCTCLRCLRCLRCLRCLRSCTCLRCLR
FltCatVFRVFRVFRVFRVFRVFRVFRVFRVFRVFRVFRVFRVFR
WX--------------------------
WDir180210180150210180150160140110130140140
WSpd8 8 5 5 4 4 5 3 3 3 6 5 4
WGst-- -- -- -- -- -- -- -- -- -- -- -- --
Raw hourly METARs
KPSN 181655Z AUTO 18008KT 10SM SCT031 SCT037 SCT043 32/23 A2996 RMK AO2 T03190236
KPSN 181755Z AUTO 21008KT 10SM SCT044 SCT050 33/22 A2994 RMK AO2 T03350227
KPSN 181855Z AUTO 18005KT 10SM CLR 35/22 A2992 RMK AO2 T03480227
KPSN 181955Z AUTO 15005KT 10SM SCT049 35/21 A2990 RMK AO2 T03520218
KPSN 182055Z AUTO 21004KT 10SM SCT055 SCT065 35/21 A2990 RMK AO2 T03560218
KPSN 182155Z AUTO 18004KT 10SM CLR 36/21 A2989 RMK AO2 T03590211
KPSN 182255Z AUTO 15005KT 10SM CLR 35/20 A2988 RMK AO2 T03560205
KPSN 182355Z AUTO 16003KT 10SM CLR 35/20 A2987 RMK AO2 T03490206
KPSN 190055Z AUTO 14003KT 10SM CLR 32/22 A2986 RMK AO2 T03290220
KPSN 190155Z AUTO 11003KT 10SM CLR 28/24 A2988 RMK AO2 T02840245
KPSN 190255Z AUTO 13006KT 10SM SCT060 SCT070 30/23 A2991 RMK AO2 T03070237
KPSN 190355Z AUTO 14005KT 10SM CLR 30/25 A2994 RMK AO2 T02980247
KPSN 190455Z AUTO 14004KT 10SM CLR 28/25 A2995 RMK AO2 T02900250



Page loaded:  05:32 UTC  |   10:32 PM Pacific  |   11:32 PM Mountain  |   12:32 AM Central  |   01:32 AM Eastern

 

ADVISORIES

FORECASTS

FORECASTS

OBSERVATIONS

USER TOOLS

ABOUT US